Time;durP1;ratioP1;P1;durP2;ratioP2;P2;SDS_P1;SDS_P2;PMS_P1;PMS_P2;Temp;Humidity;BMP_temperature;BMP_pressure;BME280_temperature;BME280_humidity;BME280_pressure;Samples;Min_cycle;Max_cycle;Signal;HPM_P1;HPM_P2
2023/06/24 00:00:13;;;;;;;;;;;15.10;61.20;;;;;;4138605;28;19968;-82
2023/06/24 00:02:14;;;;;;;;;;;15.10;61.00;;;;;;4149074;28;19998;-83
2023/06/24 00:04:34;;;;;;;;;;;15.00;60.70;;;;;;4150205;28;19918;-82
2023/06/24 00:06:58;;;;;;;;;;;15.00;60.90;;;;;;4138883;28;20010;-83
2023/06/24 00:09:19;;;;;;;;;;;15.00;61.30;;;;;;4144552;28;19917;-83
2023/06/24 00:11:40;;;;;;;;;;;14.90;61.30;;;;;;4160570;28;20116;-83
2023/06/24 00:14:00;;;;;;;;;;;14.90;61.20;;;;;;4167178;28;19909;-84
2023/06/24 00:16:27;;;;;;;;;;;14.90;61.10;;;;;;4152645;28;19930;-84
2023/06/24 00:18:47;;;;;;;;;;;14.90;61.30;;;;;;4178229;28;19925;-83
2023/06/24 00:21:08;;;;;;;;;;;14.80;61.30;;;;;;4149588;28;19949;-84
2023/06/24 00:23:30;;;;;;;;;;;14.80;61.50;;;;;;4152875;28;19975;-84
2023/06/24 00:25:51;;;;;;;;;;;14.80;61.30;;;;;;4165458;28;19921;-82
2023/06/24 00:28:12;;;;;;;;;;;14.80;61.60;;;;;;4133215;28;19957;-83
2023/06/24 00:30:15;;;;;;;;;;;14.70;61.70;;;;;;4116570;28;20015;-83
2023/06/24 00:32:16;;;;;;;;;;;14.70;61.70;;;;;;4149409;28;19914;-83
2023/06/24 00:34:19;;;;;;;;;;;14.70;61.90;;;;;;4134074;28;19918;-83
2023/06/24 00:36:20;;;;;;;;;;;14.70;61.80;;;;;;4133178;28;19910;-83
2023/06/24 00:38:21;;;;;;;;;;;14.60;61.70;;;;;;4116399;28;20183;-83
2023/06/24 00:40:21;;;;;;;;;;;14.60;62.00;;;;;;4163255;28;20021;-82
2023/06/24 00:42:46;;;;;;;;;;;14.60;62.00;;;;;;4131783;28;19936;-82
2023/06/24 00:45:07;;;;;;;;;;;14.60;62.60;;;;;;4135089;28;19922;-82
2023/06/24 00:47:08;;;;;;;;;;;14.60;62.70;;;;;;4163933;28;19920;-83
2023/06/24 00:49:13;;;;;;;;;;;14.60;62.90;;;;;;4150609;28;19909;-83
2023/06/24 00:51:30;;;;;;;;;;;14.50;63.20;;;;;;4118330;28;19914;-83
2023/06/24 00:53:50;;;;;;;;;;;14.50;63.30;;;;;;4134294;28;19937;-83
2023/06/24 00:56:13;;;;;;;;;;;14.50;63.50;;;;;;4153615;28;19914;-82
2023/06/24 00:58:35;;;;;;;;;;;14.50;63.70;;;;;;4152814;28;19913;-83
2023/06/24 01:00:57;;;;;;;;;;;14.40;63.60;;;;;;4132143;28;19914;-83
2023/06/24 01:03:18;;;;;;;;;;;14.40;63.80;;;;;;4137073;28;19914;-83
2023/06/24 01:05:38;;;;;;;;;;;14.40;64.00;;;;;;4157525;28;19928;-82
2023/06/24 01:08:00;;;;;;;;;;;14.40;64.20;;;;;;4143922;28;19973;-82
2023/06/24 01:10:22;;;;;;;;;;;14.30;64.20;;;;;;4145084;28;19916;-81
2023/06/24 01:12:44;;;;;;;;;;;14.30;64.20;;;;;;4140758;28;19921;-82
2023/06/24 01:14:44;;;;;;;;;;;14.30;64.30;;;;;;4128627;28;19968;-82
2023/06/24 01:17:01;;;;;;;;;;;14.30;64.70;;;;;;4141680;28;19918;-82
2023/06/24 01:19:14;;;;;;;;;;;14.30;64.60;;;;;;4143584;28;19910;-82
2023/06/24 01:21:29;;;;;;;;;;;14.20;64.70;;;;;;4145157;28;19910;-83
2023/06/24 01:23:42;;;;;;;;;;;14.20;64.80;;;;;;4127772;28;20402;-83
2023/06/24 01:25:49;;;;;;;;;;;14.20;65.00;;;;;;4144654;28;20438;-81
2023/06/24 01:27:58;;;;;;;;;;;14.20;65.10;;;;;;4142987;28;19913;-83
2023/06/24 01:30:02;;;;;;;;;;;14.10;65.20;;;;;;4129213;28;20924;-81
2023/06/24 01:32:10;;;;;;;;;;;14.10;65.40;;;;;;4143430;28;20403;-83
2023/06/24 01:34:26;;;;;;;;;;;14.10;65.50;;;;;;4112537;28;19914;-82
2023/06/24 01:36:28;;;;;;;;;;;14.10;65.50;;;;;;4125294;28;19937;-83
2023/06/24 01:38:38;;;;;;;;;;;14.10;65.50;;;;;;4112217;28;20093;-82
2023/06/24 01:40:41;;;;;;;;;;;14.10;65.70;;;;;;4125076;28;20183;-82
2023/06/24 01:42:42;;;;;;;;;;;14.10;65.70;;;;;;4127509;28;20727;-84
2023/06/24 01:44:44;;;;;;;;;;;14.00;66.40;;;;;;4138668;28;20177;-83
2023/06/24 01:46:46;;;;;;;;;;;14.10;66.10;;;;;;4127272;28;20395;-83
2023/06/24 01:48:47;;;;;;;;;;;14.10;66.00;;;;;;4147692;28;19917;-83
2023/06/24 01:50:57;;;;;;;;;;;14.00;66.00;;;;;;4130288;28;19926;-82
2023/06/24 01:53:02;;;;;;;;;;;14.00;66.00;;;;;;4146581;28;19924;-82
2023/06/24 01:55:06;;;;;;;;;;;14.00;66.00;;;;;;4162394;28;20395;-82
2023/06/24 01:57:08;;;;;;;;;;;14.00;66.20;;;;;;4144377;28;19936;-83
2023/06/24 01:59:08;;;;;;;;;;;13.90;66.10;;;;;;4147026;28;20379;-81
2023/06/24 02:01:09;;;;;;;;;;;14.00;66.30;;;;;;4129777;28;19913;-82
2023/06/24 02:03:11;;;;;;;;;;;14.00;66.20;;;;;;4146566;28;19925;-82
2023/06/24 02:05:12;;;;;;;;;;;13.90;66.20;;;;;;4147332;28;19937;-83
2023/06/24 02:07:13;;;;;;;;;;;13.90;66.30;;;;;;4146406;28;19991;-83
2023/06/24 02:09:16;;;;;;;;;;;13.90;66.20;;;;;;4145797;28;19917;-82
2023/06/24 02:11:18;;;;;;;;;;;13.90;66.30;;;;;;4127891;28;19985;-83
2023/06/24 02:13:19;;;;;;;;;;;14.00;66.40;;;;;;4115164;28;19919;-83
2023/06/24 02:15:21;;;;;;;;;;;13.90;66.40;;;;;;4127562;28;19914;-81
2023/06/24 02:17:24;;;;;;;;;;;13.80;66.50;;;;;;4116382;28;20060;-83
2023/06/24 02:19:25;;;;;;;;;;;13.90;66.60;;;;;;4142810;28;19922;-83
2023/06/24 02:21:26;;;;;;;;;;;13.80;66.50;;;;;;4144562;28;19985;-84
2023/06/24 02:23:27;;;;;;;;;;;13.80;66.60;;;;;;4132342;28;19968;-82
2023/06/24 02:27:36;;;;;;;;;;;13.80;66.70;;;;;;4144095;28;19932;-81
2023/06/24 02:29:41;;;;;;;;;;;13.80;66.80;;;;;;4166147;28;19933;-82
2023/06/24 02:31:51;;;;;;;;;;;13.80;66.80;;;;;;4161789;28;19917;-81
2023/06/24 02:34:00;;;;;;;;;;;13.80;66.90;;;;;;4146033;28;19924;-81
2023/06/24 02:36:03;;;;;;;;;;;13.70;66.80;;;;;;4146910;28;19928;-82
2023/06/24 02:38:04;;;;;;;;;;;13.80;67.00;;;;;;4163027;28;19959;-82
2023/06/24 02:40:05;;;;;;;;;;;13.80;67.90;;;;;;4151064;28;19921;-81
2023/06/24 02:42:12;;;;;;;;;;;13.70;67.00;;;;;;4145983;28;19914;-82
2023/06/24 02:44:16;;;;;;;;;;;13.80;67.00;;;;;;4161106;28;19913;-82
2023/06/24 02:46:17;;;;;;;;;;;13.70;67.00;;;;;;4149544;28;20024;-82
2023/06/24 02:48:18;;;;;;;;;;;13.70;67.00;;;;;;4148937;28;20431;-83
2023/06/24 02:50:19;;;;;;;;;;;13.80;67.00;;;;;;4128211;28;20317;-81
2023/06/24 02:52:20;;;;;;;;;;;13.70;67.00;;;;;;4148624;28;19924;-82
2023/06/24 02:54:20;;;;;;;;;;;13.80;67.10;;;;;;4128153;28;19928;-83
2023/06/24 02:56:22;;;;;;;;;;;13.80;67.00;;;;;;4131806;28;19913;-82
2023/06/24 02:58:23;;;;;;;;;;;13.70;67.00;;;;;;4148993;28;20295;-82
2023/06/24 03:00:25;;;;;;;;;;;13.70;67.00;;;;;;4145844;28;19925;-82
2023/06/24 03:02:26;;;;;;;;;;;13.70;67.00;;;;;;4146714;28;19917;-81
2023/06/24 03:04:28;;;;;;;;;;;13.70;67.00;;;;;;4129132;28;19922;-83
2023/06/24 03:06:28;;;;;;;;;;;13.70;67.10;;;;;;4129830;28;19944;-81
2023/06/24 03:08:29;;;;;;;;;;;13.70;67.20;;;;;;4147379;28;19913;-81
2023/06/24 03:10:56;;;;;;;;;;;13.70;67.20;;;;;;4147003;28;19921;-82
2023/06/24 03:13:17;;;;;;;;;;;13.70;67.30;;;;;;4148892;28;19923;-82
2023/06/24 03:15:37;;;;;;;;;;;13.70;67.30;;;;;;4143327;28;20477;-82
2023/06/24 03:17:58;;;;;;;;;;;13.80;67.60;;;;;;4146357;28;19996;-82
2023/06/24 03:19:59;;;;;;;;;;;13.60;67.40;;;;;;4163925;28;19920;-82
2023/06/24 03:22:21;;;;;;;;;;;13.60;67.30;;;;;;4148730;28;20402;-81
2023/06/24 03:24:41;;;;;;;;;;;13.60;67.30;;;;;;4140788;28;20658;-82
2023/06/24 03:27:05;;;;;;;;;;;13.70;67.30;;;;;;4151633;28;19956;-82
2023/06/24 03:29:26;;;;;;;;;;;13.70;67.40;;;;;;4136284;28;20001;-83
2023/06/24 03:31:46;;;;;;;;;;;13.60;67.30;;;;;;4135473;28;20400;-82
2023/06/24 03:34:07;;;;;;;;;;;13.70;67.50;;;;;;4150176;28;20362;-83
2023/06/24 03:36:08;;;;;;;;;;;13.60;67.40;;;;;;4148923;28;19921;-82
2023/06/24 03:38:08;;;;;;;;;;;13.70;67.40;;;;;;4150799;28;19917;-82
2023/06/24 03:40:09;;;;;;;;;;;13.70;67.40;;;;;;4152710;28;19921;-82
2023/06/24 03:42:10;;;;;;;;;;;13.70;67.40;;;;;;4153291;28;19997;-81
2023/06/24 03:44:10;;;;;;;;;;;13.70;67.50;;;;;;4151744;28;19928;-81
2023/06/24 03:46:14;;;;;;;;;;;13.70;67.70;;;;;;4151410;28;19976;-81
2023/06/24 03:48:14;;;;;;;;;;;13.70;67.80;;;;;;4151169;28;19913;-82
2023/06/24 03:50:15;;;;;;;;;;;13.70;67.90;;;;;;4134646;28;19921;-81
2023/06/24 03:52:16;;;;;;;;;;;13.80;68.30;;;;;;4152787;28;19952;-83
2023/06/24 03:54:17;;;;;;;;;;;13.80;68.70;;;;;;4161847;28;19921;-81
2023/06/24 03:56:18;;;;;;;;;;;13.80;69.30;;;;;;4129848;28;19925;-82
2023/06/24 03:58:20;;;;;;;;;;;13.90;69.90;;;;;;4148219;28;19977;-82
2023/06/24 04:00:21;;;;;;;;;;;14.00;70.50;;;;;;4131929;28;19922;-82
2023/06/24 04:02:22;;;;;;;;;;;14.10;71.00;;;;;;4147668;28;19924;-82
2023/06/24 04:04:25;;;;;;;;;;;14.10;70.90;;;;;;4132408;28;19913;-82
2023/06/24 04:06:25;;;;;;;;;;;14.20;71.10;;;;;;4133707;28;20197;-82
2023/06/24 04:08:29;;;;;;;;;;;14.30;71.00;;;;;;4150748;28;19917;-82
2023/06/24 04:10:32;;;;;;;;;;;14.40;70.90;;;;;;4134926;28;19922;-83
2023/06/24 04:12:33;;;;;;;;;;;14.40;71.00;;;;;;4133341;28;20044;-82
2023/06/24 04:14:33;;;;;;;;;;;14.40;71.20;;;;;;4151732;28;19913;-82
2023/06/24 04:16:34;;;;;;;;;;;14.50;71.00;;;;;;4136662;28;19922;-82
2023/06/24 04:18:39;;;;;;;;;;;14.50;71.00;;;;;;4149393;28;19924;-82
2023/06/24 04:20:46;;;;;;;;;;;14.50;70.70;;;;;;4151849;28;19926;-83
2023/06/24 04:22:58;;;;;;;;;;;14.50;70.40;;;;;;4151096;28;19920;-81
2023/06/24 04:25:18;;;;;;;;;;;14.60;70.20;;;;;;4151491;28;19917;-82
2023/06/24 04:27:41;;;;;;;;;;;14.60;69.90;;;;;;4150942;28;19986;-82
2023/06/24 04:30:02;;;;;;;;;;;14.60;69.70;;;;;;4149120;28;19928;-83
2023/06/24 04:32:06;;;;;;;;;;;14.60;69.70;;;;;;4135055;28;20006;-82
2023/06/24 04:34:26;;;;;;;;;;;14.70;69.60;;;;;;4148257;28;19952;-82
2023/06/24 04:36:47;;;;;;;;;;;14.70;69.70;;;;;;4148821;28;19913;-83
2023/06/24 04:39:08;;;;;;;;;;;14.70;69.40;;;;;;4148750;28;19914;-81
2023/06/24 04:41:28;;;;;;;;;;;14.70;69.30;;;;;;4151098;28;20306;-82
2023/06/24 04:43:49;;;;;;;;;;;14.80;69.80;;;;;;4149841;28;19964;-80
2023/06/24 04:46:10;;;;;;;;;;;14.80;69.80;;;;;;4143568;28;19941;-82
2023/06/24 04:48:10;;;;;;;;;;;14.80;69.40;;;;;;4146351;28;19921;-82
2023/06/24 04:50:11;;;;;;;;;;;14.80;69.50;;;;;;4146673;28;19921;-82
2023/06/24 04:52:11;;;;;;;;;;;14.80;69.50;;;;;;4129781;28;19918;-81
2023/06/24 04:54:12;;;;;;;;;;;14.90;69.60;;;;;;4131165;28;19972;-83
2023/06/24 04:56:13;;;;;;;;;;;14.90;69.50;;;;;;4147740;28;19918;-81
2023/06/24 04:58:13;;;;;;;;;;;15.00;69.80;;;;;;4131978;28;19933;-83
2023/06/24 05:00:14;;;;;;;;;;;15.00;69.80;;;;;;4126814;28;19946;-80
2023/06/24 05:02:16;;;;;;;;;;;15.00;69.90;;;;;;4152198;28;20407;-82
2023/06/24 05:04:16;;;;;;;;;;;15.00;69.90;;;;;;4146786;28;20013;-82
2023/06/24 05:06:17;;;;;;;;;;;15.10;69.80;;;;;;4135233;28;19988;-82
2023/06/24 05:08:17;;;;;;;;;;;15.10;69.70;;;;;;4134492;28;19914;-82
2023/06/24 05:10:38;;;;;;;;;;;15.10;69.60;;;;;;4145744;28;19919;-81
2023/06/24 05:12:39;;;;;;;;;;;15.20;69.60;;;;;;4131142;28;19918;-82
2023/06/24 05:14:59;;;;;;;;;;;15.10;69.70;;;;;;4148754;28;20040;-80
2023/06/24 05:17:20;;;;;;;;;;;15.20;69.50;;;;;;4149274;28;19957;-84
2023/06/24 05:19:41;;;;;;;;;;;15.20;69.40;;;;;;4147521;28;19933;-81
2023/06/24 05:22:01;;;;;;;;;;;15.20;69.40;;;;;;4147971;28;19917;-81
2023/06/24 05:24:22;;;;;;;;;;;15.30;69.40;;;;;;4146242;28;19976;-81
2023/06/24 05:26:44;;;;;;;;;;;15.30;69.30;;;;;;4147882;28;19925;-80
2023/06/24 05:29:04;;;;;;;;;;;15.40;69.30;;;;;;4136202;28;19913;-82
2023/06/24 05:31:25;;;;;;;;;;;15.40;69.50;;;;;;4145153;28;19922;-81
2023/06/24 05:33:46;;;;;;;;;;;15.50;69.90;;;;;;4149063;28;20012;-82
2023/06/24 05:35:46;;;;;;;;;;;15.50;69.80;;;;;;4120704;28;19914;-80
2023/06/24 05:37:50;;;;;;;;;;;15.50;70.10;;;;;;4149849;28;19993;-83
2023/06/24 05:39:50;;;;;;;;;;;15.60;70.30;;;;;;4131399;28;19929;-82
2023/06/24 05:41:51;;;;;;;;;;;15.70;70.40;;;;;;4146435;28;20431;-83
2023/06/24 05:44:22;;;;;;;;;;;15.80;70.80;;;;;;4146850;28;19952;-82
2023/06/24 05:46:23;;;;;;;;;;;15.90;70.80;;;;;;4045983;29;20311;-81
2023/06/24 05:48:23;;;;;;;;;;;16.00;71.00;;;;;;4067920;29;20041;-81
2023/06/24 05:50:24;;;;;;;;;;;16.10;71.40;;;;;;4051934;29;19923;-81
2023/06/24 05:52:24;;;;;;;;;;;16.20;71.80;;;;;;4049008;29;19976;-81
2023/06/24 05:54:45;;;;;;;;;;;16.30;71.30;;;;;;4068654;29;19919;-82
2023/06/24 05:57:06;;;;;;;;;;;16.40;71.20;;;;;;4057080;29;19923;-82
2023/06/24 05:59:26;;;;;;;;;;;16.40;70.80;;;;;;4062717;29;19925;-81
2023/06/24 06:01:27;;;;;;;;;;;16.50;70.90;;;;;;4064806;29;20010;-82
2023/06/24 06:03:27;;;;;;;;;;;16.60;70.70;;;;;;4066283;29;20005;-82
2023/06/24 06:05:28;;;;;;;;;;;16.60;70.20;;;;;;4067723;29;20388;-82
2023/06/24 06:07:28;;;;;;;;;;;16.70;70.30;;;;;;4056570;29;19948;-83
2023/06/24 06:09:29;;;;;;;;;;;16.70;70.10;;;;;;4059256;29;20091;-82
2023/06/24 06:11:30;;;;;;;;;;;16.80;69.70;;;;;;4069488;29;19942;-82
2023/06/24 06:13:30;;;;;;;;;;;16.80;69.60;;;;;;4053387;29;19924;-82
2023/06/24 06:15:31;;;;;;;;;;;16.80;69.70;;;;;;4067119;29;20010;-82
2023/06/24 06:20:34;;;;;;;;;;;17.00;69.40;;;;;;4121159;28;19917;-82
2023/06/24 06:23:11;;;;;;;;;;;17.00;69.30;;;;;;4132402;28;19952;-83
2023/06/24 06:25:12;;;;;;;;;;;17.10;68.90;;;;;;4062661;29;19958;-82
2023/06/24 06:27:16;;;;;;;;;;;17.10;68.70;;;;;;4077963;29;19918;-82
2023/06/24 06:29:16;;;;;;;;;;;17.20;68.70;;;;;;4078818;29;19925;-82
2023/06/24 06:31:17;;;;;;;;;;;17.20;68.60;;;;;;4095456;28;19915;-82
2023/06/24 06:33:18;;;;;;;;;;;17.30;68.80;;;;;;4081127;29;19963;-82
2023/06/24 06:35:19;;;;;;;;;;;17.30;68.50;;;;;;4077385;29;20345;-82
2023/06/24 06:37:24;;;;;;;;;;;17.30;68.30;;;;;;4080938;29;21540;-82
2023/06/24 06:39:36;;;;;;;;;;;17.30;68.30;;;;;;4081527;29;20014;-82
2023/06/24 06:41:56;;;;;;;;;;;17.40;68.20;;;;;;4079707;29;19918;-82
2023/06/24 06:44:17;;;;;;;;;;;17.40;67.50;;;;;;4091260;28;20003;-82
2023/06/24 06:46:38;;;;;;;;;;;17.50;68.30;;;;;;4078611;29;19978;-82
2023/06/24 06:48:59;;;;;;;;;;;17.50;68.20;;;;;;4077658;29;19923;-82
2023/06/24 06:51:20;;;;;;;;;;;17.60;68.30;;;;;;4078213;29;19918;-83
2023/06/24 06:53:41;;;;;;;;;;;17.60;67.90;;;;;;4079959;29;19930;-82
2023/06/24 06:56:01;;;;;;;;;;;17.70;68.10;;;;;;4077949;29;19982;-84
2023/06/24 06:58:22;;;;;;;;;;;17.70;68.10;;;;;;4079513;29;20004;-83
2023/06/24 07:00:42;;;;;;;;;;;17.80;67.80;;;;;;4068313;29;19923;-82
2023/06/24 07:03:03;;;;;;;;;;;17.90;67.80;;;;;;4146224;28;19913;-81
2023/06/24 07:05:23;;;;;;;;;;;17.90;67.70;;;;;;4147397;28;19945;-81
2023/06/24 07:07:45;;;;;;;;;;;17.90;67.30;;;;;;4134191;28;20004;-81
2023/06/24 07:09:47;;;;;;;;;;;18.00;67.30;;;;;;4148436;28;20128;-82
2023/06/24 07:11:48;;;;;;;;;;;18.10;67.30;;;;;;4115324;28;19973;-82
2023/06/24 07:13:51;;;;;;;;;;;18.10;67.50;;;;;;4147097;28;19913;-82
2023/06/24 07:15:51;;;;;;;;;;;18.20;67.60;;;;;;4144850;28;19999;-82
2023/06/24 07:17:53;;;;;;;;;;;18.30;67.60;;;;;;4147939;28;20391;-82
2023/06/24 07:19:53;;;;;;;;;;;18.30;67.30;;;;;;4130157;28;19952;-82
2023/06/24 07:21:54;;;;;;;;;;;18.40;67.20;;;;;;4131708;28;19929;-81
2023/06/24 07:23:54;;;;;;;;;;;18.50;66.80;;;;;;4131126;28;20012;-82
2023/06/24 07:25:55;;;;;;;;;;;18.50;66.70;;;;;;4149309;28;19994;-82
2023/06/24 07:27:56;;;;;;;;;;;18.60;66.50;;;;;;4131736;28;20442;-82
2023/06/24 07:29:56;;;;;;;;;;;18.70;66.20;;;;;;4113693;28;19922;-82
2023/06/24 07:31:57;;;;;;;;;;;18.70;66.00;;;;;;4149078;28;19913;-82
2023/06/24 07:33:58;;;;;;;;;;;18.80;65.80;;;;;;4148591;28;19921;-83
2023/06/24 07:36:13;;;;;;;;;;;18.90;65.80;;;;;;4113980;28;19923;-83
2023/06/24 07:38:34;;;;;;;;;;;19.00;65.70;;;;;;4146910;28;19920;-82
2023/06/24 07:40:34;;;;;;;;;;;19.00;65.30;;;;;;4132461;28;20440;-83
2023/06/24 07:42:55;;;;;;;;;;;19.10;65.30;;;;;;4149659;28;19925;-82
2023/06/24 07:45:15;;;;;;;;;;;19.20;65.30;;;;;;4160426;28;19928;-82
2023/06/24 07:47:36;;;;;;;;;;;19.20;65.10;;;;;;4144308;28;19933;-82
2023/06/24 07:49:57;;;;;;;;;;;19.40;65.00;;;;;;4148047;28;19917;-82
2023/06/24 07:52:17;;;;;;;;;;;19.30;64.70;;;;;;4132944;28;19918;-83
2023/06/24 07:54:38;;;;;;;;;;;19.40;64.60;;;;;;4129022;28;20008;-83
2023/06/24 07:56:38;;;;;;;;;;;19.50;64.40;;;;;;4134902;28;20532;-83
2023/06/24 07:58:39;;;;;;;;;;;19.60;64.40;;;;;;4144284;28;19924;-81
2023/06/24 08:00:39;;;;;;;;;;;19.70;64.50;;;;;;4127936;28;19925;-80
2023/06/24 08:02:45;;;;;;;;;;;19.70;64.50;;;;;;4145353;28;19925;-80
2023/06/24 08:04:46;;;;;;;;;;;19.80;64.50;;;;;;4130114;28;19918;-81
2023/06/24 08:06:50;;;;;;;;;;;19.90;64.60;;;;;;4114420;28;19933;-82
2023/06/24 08:09:15;;;;;;;;;;;20.00;64.60;;;;;;4146036;28;19925;-80
2023/06/24 08:11:36;;;;;;;;;;;20.20;64.60;;;;;;4143394;28;19941;-83
2023/06/24 08:13:59;;;;;;;;;;;20.20;63.60;;;;;;4128312;28;19979;-81
2023/06/24 08:16:20;;;;;;;;;;;20.40;63.50;;;;;;4142330;28;19921;-81
2023/06/24 08:18:40;;;;;;;;;;;20.50;62.80;;;;;;4143107;28;20383;-80
2023/06/24 08:20:44;;;;;;;;;;;20.50;62.60;;;;;;4138865;28;19925;-79
2023/06/24 08:23:05;;;;;;;;;;;20.60;62.30;;;;;;4141154;28;20405;-82
2023/06/24 08:25:26;;;;;;;;;;;20.60;61.60;;;;;;4144551;28;19918;-79
2023/06/24 08:27:47;;;;;;;;;;;20.70;61.50;;;;;;4143663;28;19933;-81
2023/06/24 08:30:08;;;;;;;;;;;20.70;59.90;;;;;;4144322;28;19924;-81
2023/06/24 08:32:28;;;;;;;;;;;20.80;59.70;;;;;;4147852;28;20012;-81
2023/06/24 08:34:49;;;;;;;;;;;20.90;60.60;;;;;;4146329;28;19953;-81
2023/06/24 08:37:34;;;;;;;;;;;20.90;60.80;;;;;;4131967;28;19949;-81
2023/06/24 08:40:11;;;;;;;;;;;21.00;59.80;;;;;;4043490;29;19998;-87
2023/06/24 08:42:14;;;;;;;;;;;21.00;59.80;;;;;;4053302;29;19967;-81
2023/06/24 08:44:15;;;;;;;;;;;21.10;59.80;;;;;;4052321;29;19927;-81
2023/06/24 08:46:26;;;;;;;;;;;21.20;60.50;;;;;;4046787;29;20087;-80
2023/06/24 08:48:28;;;;;;;;;;;21.30;60.00;;;;;;4049713;29;20087;-81
2023/06/24 08:50:33;;;;;;;;;;;21.40;59.00;;;;;;4054962;29;19930;-82
2023/06/24 08:52:37;;;;;;;;;;;21.60;59.40;;;;;;4049306;29;20389;-80
2023/06/24 08:54:39;;;;;;;;;;;21.60;59.60;;;;;;4052588;29;19923;-81
2023/06/24 08:56:40;;;;;;;;;;;21.80;59.50;;;;;;4049634;29;19923;-82
2023/06/24 08:58:41;;;;;;;;;;;21.90;58.60;;;;;;4035795;29;19924;-82
2023/06/24 09:00:42;;;;;;;;;;;22.00;57.60;;;;;;4055346;29;20324;-82
2023/06/24 09:02:43;;;;;;;;;;;22.10;58.40;;;;;;4033483;29;20366;-80
2023/06/24 09:04:52;;;;;;;;;;;22.20;56.50;;;;;;4045038;29;20167;-81
2023/06/24 09:07:53;;;;;;;;;;;;;;;;;;;;;
2023/06/24 09:10:35;;;;;;;;;;;22.40;57.30;;;;;;4050627;29;19915;-82
2023/06/24 09:13:10;;;;;;;;;;;22.50;56.40;;;;;;4046987;29;19926;-82
2023/06/24 09:17:46;;;;;;;;;;;22.70;56.30;;;;;;4173793;28;19971;-81
2023/06/24 09:20:07;;;;;;;;;;;22.70;53.30;;;;;;4173164;28;19917;-81
2023/06/24 09:22:31;;;;;;;;;;;22.80;54.00;;;;;;4165289;28;19927;-81
2023/06/24 09:24:37;;;;;;;;;;;22.90;54.20;;;;;;4176433;28;19932;-82
2023/06/24 09:26:38;;;;;;;;;;;23.00;53.60;;;;;;4174817;28;19921;-81
2023/06/24 09:28:38;;;;;;;;;;;23.00;50.20;;;;;;4174107;28;19928;-82
2023/06/24 09:30:39;;;;;;;;;;;23.10;49.30;;;;;;4170922;28;20358;-82
2023/06/24 09:32:43;;;;;;;;;;;23.10;51.10;;;;;;4175307;28;20286;-82
2023/06/24 09:35:14;;;;;;;;;;;23.20;49.20;;;;;;4189854;28;19938;-82
2023/06/24 09:37:21;;;;;;;;;;;23.30;51.30;;;;;;4174064;28;19917;-83
2023/06/24 09:39:31;;;;;;;;;;;23.40;49.10;;;;;;4173805;28;19923;-83
2023/06/24 09:41:41;;;;;;;;;;;23.50;50.90;;;;;;4192291;28;19916;-84
2023/06/24 09:43:44;;;;;;;;;;;23.50;51.50;;;;;;4174376;28;20000;-82
2023/06/24 09:46:23;;;;;;;;;;;23.60;51.10;;;;;;4170021;28;20074;-81
2023/06/24 09:48:43;;;;;;;;;;;23.70;50.80;;;;;;4176928;28;19925;-83
2023/06/24 09:50:44;;;;;;;;;;;23.80;51.30;;;;;;4159372;28;20027;-81
2023/06/24 09:53:05;;;;;;;;;;;23.80;49.20;;;;;;4172530;28;19913;-81
2023/06/24 09:55:27;;;;;;;;;;;23.80;47.10;;;;;;4170110;28;20438;-82
2023/06/24 09:57:50;;;;;;;;;;;24.00;49.30;;;;;;4184203;28;19917;-82
2023/06/24 10:00:17;;;;;;;;;;;24.10;50.20;;;;;;4184850;28;19925;-82
2023/06/24 10:02:51;;;;;;;;;;;24.10;49.20;;;;;;4183651;28;20374;-82
2023/06/24 10:05:20;;;;;;;;;;;24.20;49.10;;;;;;4170941;28;19935;-83
2023/06/24 10:07:24;;;;;;;;;;;24.20;49.20;;;;;;4140997;28;19933;-82
2023/06/24 10:09:29;;;;;;;;;;;24.20;49.10;;;;;;4141239;28;20051;-81
2023/06/24 10:11:30;;;;;;;;;;;24.30;48.70;;;;;;4139381;28;19968;-82
2023/06/24 10:13:40;;;;;;;;;;;24.30;48.80;;;;;;4136512;28;19922;-82
2023/06/24 10:15:48;;;;;;;;;;;24.30;48.30;;;;;;4140147;28;19921;-82
2023/06/24 10:17:55;;;;;;;;;;;24.30;48.00;;;;;;4126357;28;19926;-82
2023/06/24 10:23:06;;;;;;;;;;;24.40;48.70;;;;;;4133969;28;19917;-83
2023/06/24 10:25:37;;;;;;;;;;;24.40;48.00;;;;;;4132636;28;19917;-82
2023/06/24 10:27:58;;;;;;;;;;;24.40;47.00;;;;;;4129960;28;19926;-83
2023/06/24 10:30:20;;;;;;;;;;;24.50;46.90;;;;;;4136534;28;19949;-83
2023/06/24 10:32:42;;;;;;;;;;;24.50;47.40;;;;;;4140604;28;19963;-81
2023/06/24 10:35:03;;;;;;;;;;;24.60;47.40;;;;;;4142181;28;20359;-81
2023/06/24 10:37:22;;;;;;;;;;;24.60;46.80;;;;;;4142044;28;19920;-83
2023/06/24 10:39:38;;;;;;;;;;;24.70;47.40;;;;;;4143567;28;20447;-83
2023/06/24 10:41:38;;;;;;;;;;;24.70;47.20;;;;;;4140942;28;19928;-82
2023/06/24 10:43:40;;;;;;;;;;;24.70;47.10;;;;;;4113418;28;19918;-82
2023/06/24 10:46:01;;;;;;;;;;;24.80;47.30;;;;;;4173335;28;19924;-83
2023/06/24 10:48:22;;;;;;;;;;;24.80;46.40;;;;;;4172967;28;19943;-82
2023/06/24 10:50:33;;;;;;;;;;;24.90;45.40;;;;;;4175354;28;19912;-84
2023/06/24 10:52:57;;;;;;;;;;;24.90;46.20;;;;;;4171381;28;19947;-81
2023/06/24 11:00:18;;;;;;;;;;;25.20;47.10;;;;;;4105387;28;20008;-82
2023/06/24 11:02:42;;;;;;;;;;;25.20;47.30;;;;;;4107848;28;19922;-84
2023/06/24 11:05:28;;;;;;;;;;;25.30;46.00;;;;;;4097309;28;20384;-83
2023/06/24 11:10:22;;;;;;;;;;;25.30;45.40;;;;;;4043703;29;20014;-85
2023/06/24 11:12:24;;;;;;;;;;;25.40;45.70;;;;;;4028395;29;19926;-83
2023/06/24 11:14:50;;;;;;;;;;;25.40;45.20;;;;;;4031660;29;19920;-82
2023/06/24 11:16:51;;;;;;;;;;;25.40;46.10;;;;;;4043586;29;19919;-81
2023/06/24 11:18:52;;;;;;;;;;;25.40;45.50;;;;;;4041326;29;19990;-82
2023/06/24 11:21:06;;;;;;;;;;;25.50;45.70;;;;;;4044685;29;19927;-81
2023/06/24 11:23:09;;;;;;;;;;;25.50;45.90;;;;;;4010305;29;19998;-82
2023/06/24 11:25:21;;;;;;;;;;;25.50;45.20;;;;;;4030091;29;19916;-82
2023/06/24 11:27:31;;;;;;;;;;;25.50;44.50;;;;;;4047061;29;20010;-83
2023/06/24 11:29:32;;;;;;;;;;;25.40;44.90;;;;;;4042881;29;20010;-83
2023/06/24 11:31:53;;;;;;;;;;;25.40;45.50;;;;;;4044655;29;19924;-83
2023/06/24 11:34:14;;;;;;;;;;;25.40;45.30;;;;;;4042138;29;20160;-83
2023/06/24 11:36:37;;;;;;;;;;;25.40;45.40;;;;;;4051077;29;19986;-82
2023/06/24 11:39:01;;;;;;;;;;;25.40;45.30;;;;;;4073839;29;19918;-81
2023/06/24 11:41:21;;;;;;;;;;;25.30;45.10;;;;;;4077464;29;19930;-83
2023/06/24 11:43:45;;;;;;;;;;;25.30;45.30;;;;;;4078382;28;19922;-80
2023/06/24 11:46:05;;;;;;;;;;;25.30;45.20;;;;;;4136600;23;20020;-82
2023/06/24 11:48:07;;;;;;;;;;;25.30;45.20;;;;;;4130197;28;19996;-82
2023/06/24 11:50:11;;;;;;;;;;;25.30;44.80;;;;;;4141408;28;19964;-82
2023/06/24 11:52:11;;;;;;;;;;;25.30;44.40;;;;;;4141545;28;20682;-81
2023/06/24 11:54:40;;;;;;;;;;;25.30;44.90;;;;;;4144048;28;20592;-82
2023/06/24 11:56:42;;;;;;;;;;;25.30;44.40;;;;;;4139061;28;19921;-84
2023/06/24 11:58:43;;;;;;;;;;;25.40;44.50;;;;;;4156288;28;19957;-84
2023/06/24 12:00:52;;;;;;;;;;;25.40;44.60;;;;;;4151904;28;20295;-83
2023/06/24 12:02:56;;;;;;;;;;;25.40;44.90;;;;;;4132650;28;19925;-84
2023/06/24 12:04:56;;;;;;;;;;;25.40;44.60;;;;;;4161752;28;20330;-82
2023/06/24 12:06:58;;;;;;;;;;;25.40;44.30;;;;;;4160619;28;19952;-82
2023/06/24 12:08:58;;;;;;;;;;;25.40;44.70;;;;;;4158687;28;20002;-83
2023/06/24 12:11:01;;;;;;;;;;;25.40;44.30;;;;;;4156970;28;19925;-83
2023/06/24 12:13:05;;;;;;;;;;;25.40;44.80;;;;;;4157477;28;19927;-82
2023/06/24 12:15:06;;;;;;;;;;;25.50;44.20;;;;;;4150661;28;19924;-82
2023/06/24 12:17:07;;;;;;;;;;;25.50;45.00;;;;;;4162082;28;19953;-83
2023/06/24 12:19:07;;;;;;;;;;;25.50;44.50;;;;;;4152571;28;19921;-84
2023/06/24 12:21:08;;;;;;;;;;;25.50;44.40;;;;;;4156467;28;19928;-80
2023/06/24 12:23:09;;;;;;;;;;;25.50;44.20;;;;;;4150267;28;19917;-83
2023/06/24 12:25:10;;;;;;;;;;;25.40;44.80;;;;;;4157298;28;19921;-82
2023/06/24 12:27:10;;;;;;;;;;;25.50;44.90;;;;;;4142250;28;19984;-83
2023/06/24 12:29:11;;;;;;;;;;;25.50;44.90;;;;;;4147553;28;19917;-81
2023/06/24 12:31:11;;;;;;;;;;;25.50;45.10;;;;;;4150976;28;20080;-81
2023/06/24 12:33:12;;;;;;;;;;;25.50;45.20;;;;;;4157743;28;20008;-82
2023/06/24 12:35:13;;;;;;;;;;;25.50;44.60;;;;;;4161001;28;19924;-82
2023/06/24 12:37:13;;;;;;;;;;;25.50;44.90;;;;;;4161456;28;19925;-81
2023/06/24 12:39:14;;;;;;;;;;;25.60;44.80;;;;;;4159137;28;20290;-81
2023/06/24 12:41:14;;;;;;;;;;;25.60;44.90;;;;;;4159230;28;20011;-83
2023/06/24 12:43:15;;;;;;;;;;;25.60;44.60;;;;;;4154898;28;20415;-83
2023/06/24 12:45:16;;;;;;;;;;;25.70;44.70;;;;;;4142808;28;19940;-83
2023/06/24 12:47:18;;;;;;;;;;;25.70;44.40;;;;;;4137730;28;22331;-82
2023/06/24 12:49:18;;;;;;;;;;;25.70;44.60;;;;;;4144530;28;19925;-82
2023/06/24 12:51:19;;;;;;;;;;;25.80;45.10;;;;;;4157852;28;19921;-83
2023/06/24 12:53:20;;;;;;;;;;;25.80;45.10;;;;;;4158441;28;20004;-83
2023/06/24 12:55:21;;;;;;;;;;;25.80;45.00;;;;;;4128151;28;19922;-82